sensor_id;sensor_type;location;lat;lon;timestamp;pressure;altitude;pressure_sealevel;temperature;humidity
6506;BME280;3286;49.858;8.768;2022-07-22T00:00:54;99636.19;;;21.41;54.74
6506;BME280;3286;49.858;8.768;2022-07-22T00:03:25;99640.28;;;21.50;54.28
6506;BME280;3286;49.858;8.768;2022-07-22T00:05:54;99640.34;;;21.44;54.75
6506;BME280;3286;49.858;8.768;2022-07-22T00:08:23;99637.97;;;21.61;54.17
6506;BME280;3286;49.858;8.768;2022-07-22T00:10:49;99648.63;;;21.28;55.06
6506;BME280;3286;49.858;8.768;2022-07-22T00:13:19;99648.13;;;21.59;54.46
6506;BME280;3286;49.858;8.768;2022-07-22T00:15:47;99646.16;;;21.20;55.49
6506;BME280;3286;49.858;8.768;2022-07-22T00:18:14;99650.94;;;21.05;55.25
6506;BME280;3286;49.858;8.768;2022-07-22T00:20:44;99649.50;;;20.82;56.66
6506;BME280;3286;49.858;8.768;2022-07-22T00:23:10;99648.84;;;21.00;55.67
6506;BME280;3286;49.858;8.768;2022-07-22T00:25:37;99645.75;;;21.10;55.08
6506;BME280;3286;49.858;8.768;2022-07-22T00:28:04;99640.81;;;20.87;55.90
6506;BME280;3286;49.858;8.768;2022-07-22T00:30:31;99634.13;;;21.36;54.52
6506;BME280;3286;49.858;8.768;2022-07-22T00:32:58;99636.66;;;20.70;57.42
6506;BME280;3286;49.858;8.768;2022-07-22T00:35:27;99637.66;;;20.22;57.83
6506;BME280;3286;49.858;8.768;2022-07-22T00:37:55;99644.53;;;21.06;55.33
6506;BME280;3286;49.858;8.768;2022-07-22T00:40:24;99643.50;;;20.93;55.65
6506;BME280;3286;49.858;8.768;2022-07-22T00:42:54;99642.88;;;20.98;55.20
6506;BME280;3286;49.858;8.768;2022-07-22T00:45:21;99634.63;;;20.99;54.83
6506;BME280;3286;49.858;8.768;2022-07-22T00:47:48;99635.22;;;20.75;56.16
6506;BME280;3286;49.858;8.768;2022-07-22T00:50:19;99631.94;;;21.06;55.29
6506;BME280;3286;49.858;8.768;2022-07-22T00:52:47;99635.69;;;20.85;56.07
6506;BME280;3286;49.858;8.768;2022-07-22T00:55:17;99633.19;;;20.83;55.67
6506;BME280;3286;49.858;8.768;2022-07-22T00:57:45;99626.75;;;20.64;56.66
6506;BME280;3286;49.858;8.768;2022-07-22T01:00:17;99641.25;;;20.90;55.26
6506;BME280;3286;49.858;8.768;2022-07-22T01:02:45;99637.72;;;20.63;55.51
6506;BME280;3286;49.858;8.768;2022-07-22T01:05:19;99632.38;;;20.83;54.99
6506;BME280;3286;49.858;8.768;2022-07-22T01:07:46;99621.59;;;20.96;54.40
6506;BME280;3286;49.858;8.768;2022-07-22T01:10:17;99625.31;;;20.62;55.41
6506;BME280;3286;49.858;8.768;2022-07-22T01:12:43;99624.47;;;20.61;55.76
6506;BME280;3286;49.858;8.768;2022-07-22T01:15:10;99630.06;;;20.73;55.92
6506;BME280;3286;49.858;8.768;2022-07-22T01:17:37;99630.91;;;20.67;55.54
6506;BME280;3286;49.858;8.768;2022-07-22T01:20:06;99631.28;;;20.44;56.21
6506;BME280;3286;49.858;8.768;2022-07-22T01:22:33;99627.13;;;20.34;55.82
6506;BME280;3286;49.858;8.768;2022-07-22T01:25:00;99632.09;;;20.37;55.91
6506;BME280;3286;49.858;8.768;2022-07-22T01:27:29;99637.25;;;20.39;56.11
6506;BME280;3286;49.858;8.768;2022-07-22T01:29:58;99633.16;;;20.50;55.94
6506;BME280;3286;49.858;8.768;2022-07-22T01:32:28;99642.16;;;20.15;56.80
6506;BME280;3286;49.858;8.768;2022-07-22T01:34:57;99640.09;;;20.17;56.36
6506;BME280;3286;49.858;8.768;2022-07-22T01:37:27;99637.78;;;20.01;57.06
6506;BME280;3286;49.858;8.768;2022-07-22T01:39:56;99632.25;;;20.02;56.77
6506;BME280;3286;49.858;8.768;2022-07-22T01:42:23;99640.16;;;19.75;58.02
6506;BME280;3286;49.858;8.768;2022-07-22T01:44:50;99630.00;;;20.26;56.50
6506;BME280;3286;49.858;8.768;2022-07-22T01:47:17;99629.63;;;20.36;56.36
6506;BME280;3286;49.858;8.768;2022-07-22T01:49:44;99638.16;;;19.91;57.09
6506;BME280;3286;49.858;8.768;2022-07-22T01:52:13;99635.19;;;19.72;57.62
6506;BME280;3286;49.858;8.768;2022-07-22T01:54:41;99629.41;;;19.75;57.54
6506;BME280;3286;49.858;8.768;2022-07-22T01:57:08;99640.59;;;19.86;57.30
6506;BME280;3286;49.858;8.768;2022-07-22T01:59:37;99638.28;;;19.76;57.18
6506;BME280;3286;49.858;8.768;2022-07-22T02:02:03;99634.75;;;19.68;57.67
6506;BME280;3286;49.858;8.768;2022-07-22T02:04:30;99640.50;;;19.65;57.17
6506;BME280;3286;49.858;8.768;2022-07-22T02:06:59;99633.53;;;19.71;57.35
6506;BME280;3286;49.858;8.768;2022-07-22T02:09:27;99629.84;;;19.37;58.38
6506;BME280;3286;49.858;8.768;2022-07-22T02:11:55;99627.56;;;19.76;57.37
6506;BME280;3286;49.858;8.768;2022-07-22T02:14:22;99634.47;;;19.50;58.24
6506;BME280;3286;49.858;8.768;2022-07-22T02:16:49;99632.75;;;19.84;57.14
6506;BME280;3286;49.858;8.768;2022-07-22T02:19:15;99636.91;;;19.45;58.28
6506;BME280;3286;49.858;8.768;2022-07-22T02:21:42;99632.13;;;19.82;56.86
6506;BME280;3286;49.858;8.768;2022-07-22T02:24:09;99636.66;;;19.81;56.69
6506;BME280;3286;49.858;8.768;2022-07-22T02:26:37;99638.25;;;19.27;58.86
6506;BME280;3286;49.858;8.768;2022-07-22T02:29:10;99635.38;;;19.64;58.02
6506;BME280;3286;49.858;8.768;2022-07-22T02:31:37;99639.44;;;19.53;57.62
6506;BME280;3286;49.858;8.768;2022-07-22T02:34:06;99640.34;;;19.32;58.49
6506;BME280;3286;49.858;8.768;2022-07-22T02:36:32;99632.88;;;19.27;58.66
6506;BME280;3286;49.858;8.768;2022-07-22T02:39:02;99639.47;;;19.24;58.66
6506;BME280;3286;49.858;8.768;2022-07-22T02:41:29;99638.06;;;19.29;58.66
6506;BME280;3286;49.858;8.768;2022-07-22T02:43:56;99638.66;;;19.66;57.22
6506;BME280;3286;49.858;8.768;2022-07-22T02:46:25;99636.19;;;19.29;58.57
6506;BME280;3286;49.858;8.768;2022-07-22T02:48:54;99632.59;;;19.44;57.82
6506;BME280;3286;49.858;8.768;2022-07-22T02:51:21;99635.75;;;19.61;57.69
6506;BME280;3286;49.858;8.768;2022-07-22T02:53:48;99631.00;;;19.21;59.05
6506;BME280;3286;49.858;8.768;2022-07-22T02:56:14;99636.31;;;19.49;58.13
6506;BME280;3286;49.858;8.768;2022-07-22T02:58:41;99639.31;;;19.33;58.29
6506;BME280;3286;49.858;8.768;2022-07-22T03:01:08;99644.91;;;19.38;58.27
6506;BME280;3286;49.858;8.768;2022-07-22T03:03:39;99641.84;;;19.41;57.77
6506;BME280;3286;49.858;8.768;2022-07-22T03:06:10;99644.81;;;18.46;61.02
6506;BME280;3286;49.858;8.768;2022-07-22T03:08:39;99643.25;;;19.37;58.27
6506;BME280;3286;49.858;8.768;2022-07-22T03:11:08;99643.63;;;18.99;59.25
6506;BME280;3286;49.858;8.768;2022-07-22T03:13:36;99646.38;;;19.40;57.93
6506;BME280;3286;49.858;8.768;2022-07-22T03:16:05;99641.03;;;19.12;58.91
6506;BME280;3286;49.858;8.768;2022-07-22T03:18:44;99640.13;;;19.33;57.54
6506;BME280;3286;49.858;8.768;2022-07-22T03:21:12;99644.22;;;19.22;57.79
6506;BME280;3286;49.858;8.768;2022-07-22T03:23:41;99641.78;;;18.99;58.67
6506;BME280;3286;49.858;8.768;2022-07-22T03:26:12;99644.97;;;19.16;57.82
6506;BME280;3286;49.858;8.768;2022-07-22T03:28:39;99641.13;;;18.97;58.70
6506;BME280;3286;49.858;8.768;2022-07-22T03:31:05;99644.69;;;19.33;57.93
6506;BME280;3286;49.858;8.768;2022-07-22T03:33:34;99641.38;;;19.31;57.52
6506;BME280;3286;49.858;8.768;2022-07-22T03:36:03;99641.25;;;18.89;59.02
6506;BME280;3286;49.858;8.768;2022-07-22T03:38:29;99644.44;;;18.77;59.09
6506;BME280;3286;49.858;8.768;2022-07-22T03:40:56;99646.81;;;18.87;58.98
6506;BME280;3286;49.858;8.768;2022-07-22T03:43:24;99655.78;;;18.79;58.87
6506;BME280;3286;49.858;8.768;2022-07-22T03:45:52;99644.97;;;19.16;57.82
6506;BME280;3286;49.858;8.768;2022-07-22T03:48:19;99657.66;;;19.36;57.25
6506;BME280;3286;49.858;8.768;2022-07-22T03:50:46;99649.59;;;19.01;58.46
6506;BME280;3286;49.858;8.768;2022-07-22T03:53:15;99641.94;;;19.26;57.98
6506;BME280;3286;49.858;8.768;2022-07-22T03:55:42;99645.69;;;19.32;57.70
6506;BME280;3286;49.858;8.768;2022-07-22T03:58:11;99643.03;;;19.03;58.29
6506;BME280;3286;49.858;8.768;2022-07-22T04:00:38;99647.38;;;19.04;58.16
6506;BME280;3286;49.858;8.768;2022-07-22T04:03:05;99641.84;;;18.84;58.87
6506;BME280;3286;49.858;8.768;2022-07-22T04:05:34;99647.22;;;18.91;58.76
6506;BME280;3286;49.858;8.768;2022-07-22T04:08:04;99642.66;;;19.06;58.73
6506;BME280;3286;49.858;8.768;2022-07-22T04:10:32;99645.84;;;19.23;58.06
6506;BME280;3286;49.858;8.768;2022-07-22T04:12:59;99640.13;;;18.98;59.38
6506;BME280;3286;49.858;8.768;2022-07-22T04:15:29;99642.78;;;19.27;59.20
6506;BME280;3286;49.858;8.768;2022-07-22T04:17:55;99638.75;;;19.44;58.33
6506;BME280;3286;49.858;8.768;2022-07-22T04:20:24;99636.00;;;19.66;57.75
6506;BME280;3286;49.858;8.768;2022-07-22T04:22:52;99646.91;;;19.29;59.08
6506;BME280;3286;49.858;8.768;2022-07-22T04:25:19;99645.22;;;19.21;60.31
6506;BME280;3286;49.858;8.768;2022-07-22T04:27:47;99637.88;;;19.02;60.92
6506;BME280;3286;49.858;8.768;2022-07-22T04:30:22;99637.19;;;19.63;58.95
6506;BME280;3286;49.858;8.768;2022-07-22T04:32:51;99630.41;;;19.61;59.21
6506;BME280;3286;49.858;8.768;2022-07-22T04:35:18;99629.91;;;19.44;60.12
6506;BME280;3286;49.858;8.768;2022-07-22T04:37:45;99635.81;;;19.74;59.40
6506;BME280;3286;49.858;8.768;2022-07-22T04:40:12;99632.38;;;19.87;59.12
6506;BME280;3286;49.858;8.768;2022-07-22T04:42:49;99637.66;;;19.32;60.92
6506;BME280;3286;49.858;8.768;2022-07-22T04:45:18;99635.63;;;19.82;59.41
6506;BME280;3286;49.858;8.768;2022-07-22T04:47:45;99632.66;;;20.06;58.48
6506;BME280;3286;49.858;8.768;2022-07-22T04:50:13;99630.66;;;20.41;58.17
6506;BME280;3286;49.858;8.768;2022-07-22T04:52:40;99631.50;;;20.62;57.22
6506;BME280;3286;49.858;8.768;2022-07-22T04:55:09;99632.75;;;20.73;57.54
6506;BME280;3286;49.858;8.768;2022-07-22T04:57:36;99630.00;;;20.12;57.85
6506;BME280;3286;49.858;8.768;2022-07-22T05:00:05;99629.34;;;20.04;58.72
6506;BME280;3286;49.858;8.768;2022-07-22T05:02:33;99631.91;;;20.52;56.31
6506;BME280;3286;49.858;8.768;2022-07-22T05:05:02;99619.94;;;20.48;56.66
6506;BME280;3286;49.858;8.768;2022-07-22T05:07:29;99622.03;;;20.80;56.63
6506;BME280;3286;49.858;8.768;2022-07-22T05:09:56;99627.38;;;21.07;56.06
6506;BME280;3286;49.858;8.768;2022-07-22T05:12:23;99625.47;;;20.33;57.01
6506;BME280;3286;49.858;8.768;2022-07-22T05:14:49;99630.69;;;20.75;55.21
6506;BME280;3286;49.858;8.768;2022-07-22T05:17:20;99632.34;;;20.76;55.81
6506;BME280;3286;49.858;8.768;2022-07-22T05:19:46;99629.22;;;21.13;54.82
6506;BME280;3286;49.858;8.768;2022-07-22T05:22:13;99623.66;;;21.15;54.51
6506;BME280;3286;49.858;8.768;2022-07-22T05:24:41;99627.19;;;21.02;54.14
6506;BME280;3286;49.858;8.768;2022-07-22T05:27:11;99629.44;;;21.05;54.13
6506;BME280;3286;49.858;8.768;2022-07-22T05:29:37;99624.66;;;21.34;53.31
6506;BME280;3286;49.858;8.768;2022-07-22T05:32:04;99625.63;;;21.39;55.90
6506;BME280;3286;49.858;8.768;2022-07-22T05:34:34;99623.25;;;20.57;57.66
6506;BME280;3286;49.858;8.768;2022-07-22T05:37:01;99633.19;;;20.90;55.40
6506;BME280;3286;49.858;8.768;2022-07-22T05:39:28;99626.06;;;21.36;53.74
6506;BME280;3286;49.858;8.768;2022-07-22T05:41:54;99637.66;;;21.30;53.86
6506;BME280;3286;49.858;8.768;2022-07-22T05:44:21;99637.09;;;20.94;54.86
6506;BME280;3286;49.858;8.768;2022-07-22T05:46:48;99643.47;;;21.20;53.84
6506;BME280;3286;49.858;8.768;2022-07-22T05:49:15;99641.72;;;21.66;52.66
6506;BME280;3286;49.858;8.768;2022-07-22T05:51:45;99634.59;;;21.26;53.30
6506;BME280;3286;49.858;8.768;2022-07-22T05:54:12;99634.03;;;21.77;52.67
6506;BME280;3286;49.858;8.768;2022-07-22T05:56:38;99637.19;;;21.67;51.93
6506;BME280;3286;49.858;8.768;2022-07-22T05:59:07;99643.09;;;21.89;51.25
6506;BME280;3286;49.858;8.768;2022-07-22T06:04:04;99637.19;;;21.53;53.04
6506;BME280;3286;49.858;8.768;2022-07-22T06:06:30;99638.22;;;21.52;53.32
6506;BME280;3286;49.858;8.768;2022-07-22T06:09:01;99645.78;;;21.89;51.97
6506;BME280;3286;49.858;8.768;2022-07-22T06:11:27;99645.28;;;22.06;51.59
6506;BME280;3286;49.858;8.768;2022-07-22T06:13:54;99641.44;;;22.27;50.49
6506;BME280;3286;49.858;8.768;2022-07-22T06:16:23;99637.59;;;22.09;51.34
6506;BME280;3286;49.858;8.768;2022-07-22T06:18:51;99640.78;;;22.32;50.70
6506;BME280;3286;49.858;8.768;2022-07-22T06:21:18;99634.06;;;22.09;50.98
6506;BME280;3286;49.858;8.768;2022-07-22T06:23:45;99639.59;;;22.21;50.55
6506;BME280;3286;49.858;8.768;2022-07-22T06:26:13;99633.63;;;21.60;52.12
6506;BME280;3286;49.858;8.768;2022-07-22T06:28:40;99629.22;;;21.92;51.76
6506;BME280;3286;49.858;8.768;2022-07-22T06:31:07;99628.66;;;22.16;51.28
6506;BME280;3286;49.858;8.768;2022-07-22T06:33:33;99627.66;;;22.42;50.87
6506;BME280;3286;49.858;8.768;2022-07-22T06:36:02;99630.44;;;22.61;50.74
6506;BME280;3286;49.858;8.768;2022-07-22T06:38:29;99628.56;;;22.68;49.98
6506;BME280;3286;49.858;8.768;2022-07-22T06:40:56;99625.81;;;22.10;51.33
6506;BME280;3286;49.858;8.768;2022-07-22T06:43:27;99625.06;;;21.96;51.41
6506;BME280;3286;49.858;8.768;2022-07-22T06:45:55;99625.41;;;22.39;50.57
6506;BME280;3286;49.858;8.768;2022-07-22T06:48:22;99624.44;;;23.09;48.65
6506;BME280;3286;49.858;8.768;2022-07-22T06:50:48;99622.59;;;22.84;49.29
6506;BME280;3286;49.858;8.768;2022-07-22T06:53:15;99626.03;;;22.02;50.99
6506;BME280;3286;49.858;8.768;2022-07-22T06:55:42;99615.00;;;22.75;49.20
6506;BME280;3286;49.858;8.768;2022-07-22T06:58:08;99623.66;;;22.83;49.22
6506;BME280;3286;49.858;8.768;2022-07-22T07:00:42;99620.63;;;23.17;48.88
6506;BME280;3286;49.858;8.768;2022-07-22T07:03:09;99610.72;;;23.85;46.79
6506;BME280;3286;49.858;8.768;2022-07-22T07:05:35;99621.78;;;23.96;47.66
6506;BME280;3286;49.858;8.768;2022-07-22T07:08:02;99617.19;;;23.84;46.55
6506;BME280;3286;49.858;8.768;2022-07-22T07:10:30;99612.00;;;23.83;46.44
6506;BME280;3286;49.858;8.768;2022-07-22T07:12:57;99609.81;;;23.61;47.33
6506;BME280;3286;49.858;8.768;2022-07-22T07:15:24;99606.72;;;23.57;47.90
6506;BME280;3286;49.858;8.768;2022-07-22T07:17:56;99603.34;;;23.62;47.02
6506;BME280;3286;49.858;8.768;2022-07-22T07:20:24;99602.78;;;23.91;46.25
6506;BME280;3286;49.858;8.768;2022-07-22T07:22:53;99596.25;;;23.98;46.12
6506;BME280;3286;49.858;8.768;2022-07-22T07:25:20;99595.53;;;23.72;46.66
6506;BME280;3286;49.858;8.768;2022-07-22T07:27:47;99593.75;;;24.15;45.50
6506;BME280;3286;49.858;8.768;2022-07-22T07:30:14;99592.19;;;24.08;46.06
6506;BME280;3286;49.858;8.768;2022-07-22T07:32:40;99588.09;;;24.17;44.59
6506;BME280;3286;49.858;8.768;2022-07-22T07:35:11;99594.56;;;23.85;45.53
6506;BME280;3286;49.858;8.768;2022-07-22T07:37:44;99580.09;;;23.80;45.89
6506;BME280;3286;49.858;8.768;2022-07-22T07:40:11;99582.44;;;23.76;45.64
6506;BME280;3286;49.858;8.768;2022-07-22T07:42:38;99590.84;;;23.49;46.61
6506;BME280;3286;49.858;8.768;2022-07-22T07:45:05;99584.94;;;24.08;45.22
6506;BME280;3286;49.858;8.768;2022-07-22T07:47:36;99584.88;;;23.78;45.83
6506;BME280;3286;49.858;8.768;2022-07-22T07:50:11;99579.00;;;23.99;45.63
6506;BME280;3286;49.858;8.768;2022-07-22T07:52:38;99566.78;;;24.39;45.25
6506;BME280;3286;49.858;8.768;2022-07-22T07:55:09;99566.91;;;24.33;45.11
6506;BME280;3286;49.858;8.768;2022-07-22T07:57:40;99570.09;;;24.53;44.22
6506;BME280;3286;49.858;8.768;2022-07-22T08:00:10;99569.63;;;24.33;44.41
6506;BME280;3286;49.858;8.768;2022-07-22T08:02:40;99572.16;;;24.15;44.78
6506;BME280;3286;49.858;8.768;2022-07-22T08:05:10;99574.88;;;24.39;44.16
6506;BME280;3286;49.858;8.768;2022-07-22T08:07:40;99574.97;;;24.21;45.06
6506;BME280;3286;49.858;8.768;2022-07-22T08:10:10;99568.31;;;24.35;44.59
6506;BME280;3286;49.858;8.768;2022-07-22T08:12:37;99566.78;;;23.66;46.13
6506;BME280;3286;49.858;8.768;2022-07-22T08:15:04;99565.78;;;24.10;45.27
6506;BME280;3286;49.858;8.768;2022-07-22T08:17:32;99567.22;;;24.12;45.54
6506;BME280;3286;49.858;8.768;2022-07-22T08:20:05;99565.97;;;24.39;45.02
6506;BME280;3286;49.858;8.768;2022-07-22T08:22:34;99567.16;;;24.67;44.03
6506;BME280;3286;49.858;8.768;2022-07-22T08:25:03;99576.09;;;24.55;44.93
6506;BME280;3286;49.858;8.768;2022-07-22T08:27:33;99566.81;;;25.23;43.68
6506;BME280;3286;49.858;8.768;2022-07-22T08:30:02;99566.81;;;25.11;43.03
6506;BME280;3286;49.858;8.768;2022-07-22T08:32:32;99568.75;;;24.20;44.56
6506;BME280;3286;49.858;8.768;2022-07-22T08:34:59;99564.94;;;24.40;44.61
6506;BME280;3286;49.858;8.768;2022-07-22T08:37:26;99565.84;;;25.17;42.51
6506;BME280;3286;49.858;8.768;2022-07-22T08:39:54;99562.16;;;25.59;41.95
6506;BME280;3286;49.858;8.768;2022-07-22T08:42:25;99552.47;;;26.09;41.73
6506;BME280;3286;49.858;8.768;2022-07-22T08:44:52;99545.88;;;26.34;40.37
6506;BME280;3286;49.858;8.768;2022-07-22T08:47:20;99548.97;;;25.80;41.64
6506;BME280;3286;49.858;8.768;2022-07-22T08:49:49;99549.47;;;25.77;41.59
6506;BME280;3286;49.858;8.768;2022-07-22T08:52:16;99535.56;;;26.02;41.33
6506;BME280;3286;49.858;8.768;2022-07-22T08:54:43;99535.03;;;26.17;40.24
6506;BME280;3286;49.858;8.768;2022-07-22T08:57:11;99533.38;;;25.70;42.27
6506;BME280;3286;49.858;8.768;2022-07-22T08:59:58;99535.53;;;26.48;40.63
6506;BME280;3286;49.858;8.768;2022-07-22T09:02:26;99532.00;;;26.30;39.65
6506;BME280;3286;49.858;8.768;2022-07-22T09:04:58;99535.00;;;26.68;39.11
6506;BME280;3286;49.858;8.768;2022-07-22T09:07:27;99534.34;;;26.78;38.60
6506;BME280;3286;49.858;8.768;2022-07-22T09:09:54;99528.44;;;26.81;39.21
6506;BME280;3286;49.858;8.768;2022-07-22T09:12:24;99523.69;;;27.11;38.88
6506;BME280;3286;49.858;8.768;2022-07-22T09:14:54;99530.56;;;26.79;40.86
6506;BME280;3286;49.858;8.768;2022-07-22T09:17:28;99522.03;;;27.10;38.41
6506;BME280;3286;49.858;8.768;2022-07-22T09:19:59;99524.22;;;27.85;36.80
6506;BME280;3286;49.858;8.768;2022-07-22T09:22:41;99519.81;;;27.51;37.24
6506;BME280;3286;49.858;8.768;2022-07-22T09:25:24;99528.47;;;27.75;37.51
6506;BME280;3286;49.858;8.768;2022-07-22T09:27:56;99521.81;;;27.88;37.37
6506;BME280;3286;49.858;8.768;2022-07-22T09:30:39;99523.06;;;27.75;37.22
6506;BME280;3286;49.858;8.768;2022-07-22T09:33:07;99518.75;;;27.52;37.01
6506;BME280;3286;49.858;8.768;2022-07-22T09:35:34;99518.03;;;27.89;37.04
6506;BME280;3286;49.858;8.768;2022-07-22T09:38:04;99518.84;;;27.40;37.14
6506;BME280;3286;49.858;8.768;2022-07-22T09:40:36;99512.72;;;27.72;37.20
6506;BME280;3286;49.858;8.768;2022-07-22T09:43:09;99508.59;;;27.70;37.82
6506;BME280;3286;49.858;8.768;2022-07-22T09:45:44;99503.22;;;28.02;36.24
6506;BME280;3286;49.858;8.768;2022-07-22T09:48:14;99505.13;;;28.83;34.97
6506;BME280;3286;49.858;8.768;2022-07-22T09:50:44;99491.19;;;28.26;35.37
6506;BME280;3286;49.858;8.768;2022-07-22T09:53:11;99495.91;;;28.89;34.29
6506;BME280;3286;49.858;8.768;2022-07-22T09:55:40;99493.66;;;28.75;35.41
6506;BME280;3286;49.858;8.768;2022-07-22T09:58:10;99490.72;;;29.41;34.32
6506;BME280;3286;49.858;8.768;2022-07-22T10:00:38;99494.00;;;29.74;33.55
6506;BME280;3286;49.858;8.768;2022-07-22T10:03:07;99495.47;;;28.16;34.63
6506;BME280;3286;49.858;8.768;2022-07-22T10:05:36;99481.66;;;29.19;33.81
6506;BME280;3286;49.858;8.768;2022-07-22T10:08:04;99478.19;;;29.55;32.94
6506;BME280;3286;49.858;8.768;2022-07-22T10:10:33;99479.00;;;29.40;34.22
6506;BME280;3286;49.858;8.768;2022-07-22T10:13:02;99476.22;;;29.25;33.44
6506;BME280;3286;49.858;8.768;2022-07-22T10:15:32;99477.75;;;28.95;33.64
6506;BME280;3286;49.858;8.768;2022-07-22T10:18:05;99480.34;;;29.38;32.99
6506;BME280;3286;49.858;8.768;2022-07-22T10:20:33;99476.63;;;30.01;32.85
6506;BME280;3286;49.858;8.768;2022-07-22T10:23:01;99470.75;;;29.19;33.25
6506;BME280;3286;49.858;8.768;2022-07-22T10:25:31;99471.69;;;29.77;32.86
6506;BME280;3286;49.858;8.768;2022-07-22T10:28:00;99470.34;;;30.16;32.57
6506;BME280;3286;49.858;8.768;2022-07-22T10:30:37;99456.13;;;30.45;31.54
6506;BME280;3286;49.858;8.768;2022-07-22T10:33:11;99457.06;;;30.96;30.57
6506;BME280;3286;49.858;8.768;2022-07-22T10:35:53;99457.00;;;31.06;30.15
6506;BME280;3286;49.858;8.768;2022-07-22T10:38:22;99450.91;;;31.30;30.18
6506;BME280;3286;49.858;8.768;2022-07-22T10:40:53;99450.75;;;31.50;30.05
6506;BME280;3286;49.858;8.768;2022-07-22T10:43:24;99443.78;;;31.69;30.41
6506;BME280;3286;49.858;8.768;2022-07-22T10:45:54;99442.16;;;31.33;30.51
6506;BME280;3286;49.858;8.768;2022-07-22T10:48:25;99440.38;;;31.02;30.56
6506;BME280;3286;49.858;8.768;2022-07-22T10:51:11;99435.91;;;31.27;29.78
6506;BME280;3286;49.858;8.768;2022-07-22T10:53:46;99437.84;;;31.16;30.79
6506;BME280;3286;49.858;8.768;2022-07-22T10:56:20;99423.59;;;31.30;30.65
6506;BME280;3286;49.858;8.768;2022-07-22T10:58:55;99413.84;;;31.18;29.62
6506;BME280;3286;49.858;8.768;2022-07-22T11:01:26;99423.38;;;30.66;31.06
6506;BME280;3286;49.858;8.768;2022-07-22T11:03:53;99412.41;;;30.81;30.22
6506;BME280;3286;49.858;8.768;2022-07-22T11:06:23;99422.16;;;31.43;29.92
6506;BME280;3286;49.858;8.768;2022-07-22T11:08:52;99414.31;;;31.65;27.69
6506;BME280;3286;49.858;8.768;2022-07-22T11:11:32;99408.63;;;32.21;27.22
6506;BME280;3286;49.858;8.768;2022-07-22T11:14:00;99420.44;;;31.52;28.48
6506;BME280;3286;49.858;8.768;2022-07-22T11:16:30;99411.75;;;32.39;27.99
6506;BME280;3286;49.858;8.768;2022-07-22T11:19:06;99402.75;;;32.38;27.26
6506;BME280;3286;49.858;8.768;2022-07-22T11:21:36;99397.91;;;32.30;28.05
6506;BME280;3286;49.858;8.768;2022-07-22T11:24:05;99390.00;;;32.72;27.95
6506;BME280;3286;49.858;8.768;2022-07-22T11:26:37;99383.59;;;32.62;27.81
6506;BME280;3286;49.858;8.768;2022-07-22T11:29:05;99378.47;;;32.75;27.21
6506;BME280;3286;49.858;8.768;2022-07-22T11:31:35;99376.28;;;32.77;27.05
6506;BME280;3286;49.858;8.768;2022-07-22T11:34:08;99384.38;;;30.70;28.46
6506;BME280;3286;49.858;8.768;2022-07-22T11:36:39;99378.84;;;30.04;29.83
6506;BME280;3286;49.858;8.768;2022-07-22T11:39:06;99375.84;;;30.82;29.29
6506;BME280;3286;49.858;8.768;2022-07-22T11:41:36;99371.22;;;31.92;28.37
6506;BME280;3286;49.858;8.768;2022-07-22T11:44:03;99362.25;;;32.40;27.02
6506;BME280;3286;49.858;8.768;2022-07-22T11:46:37;99358.63;;;32.20;27.32
6506;BME280;3286;49.858;8.768;2022-07-22T11:49:04;99359.69;;;32.92;26.33
6506;BME280;3286;49.858;8.768;2022-07-22T11:51:32;99348.09;;;32.57;25.96
6506;BME280;3286;49.858;8.768;2022-07-22T11:54:01;99345.59;;;31.58;26.93
6506;BME280;3286;49.858;8.768;2022-07-22T11:56:37;99343.56;;;32.47;25.82
6506;BME280;3286;49.858;8.768;2022-07-22T11:59:05;99343.44;;;32.77;25.81
6506;BME280;3286;49.858;8.768;2022-07-22T12:01:39;99337.22;;;31.79;27.00
6506;BME280;3286;49.858;8.768;2022-07-22T12:04:10;99347.47;;;32.17;26.02
6506;BME280;3286;49.858;8.768;2022-07-22T12:06:39;99349.75;;;31.85;27.04
6506;BME280;3286;49.858;8.768;2022-07-22T12:09:09;99349.34;;;32.46;25.84
6506;BME280;3286;49.858;8.768;2022-07-22T12:11:37;99346.56;;;32.27;26.41
6506;BME280;3286;49.858;8.768;2022-07-22T12:14:07;99345.69;;;33.13;25.01
6506;BME280;3286;49.858;8.768;2022-07-22T12:16:36;99336.00;;;33.21;24.64
6506;BME280;3286;49.858;8.768;2022-07-22T12:19:06;99331.66;;;33.53;24.69
6506;BME280;3286;49.858;8.768;2022-07-22T12:21:36;99336.56;;;33.37;24.94
6506;BME280;3286;49.858;8.768;2022-07-22T12:24:04;99332.34;;;33.59;25.17
6506;BME280;3286;49.858;8.768;2022-07-22T12:26:43;99323.38;;;33.86;24.90
6506;BME280;3286;49.858;8.768;2022-07-22T12:29:20;99319.69;;;33.63;24.00
6506;BME280;3286;49.858;8.768;2022-07-22T12:31:51;99325.34;;;33.52;25.97
6506;BME280;3286;49.858;8.768;2022-07-22T12:34:31;99326.63;;;32.89;26.43
6506;BME280;3286;49.858;8.768;2022-07-22T12:36:59;99316.31;;;32.61;27.73
6506;BME280;3286;49.858;8.768;2022-07-22T12:39:30;99323.00;;;32.74;25.67
6506;BME280;3286;49.858;8.768;2022-07-22T12:41:57;99313.59;;;33.19;26.05
6506;BME280;3286;49.858;8.768;2022-07-22T12:44:25;99313.50;;;32.66;26.51
6506;BME280;3286;49.858;8.768;2022-07-22T12:46:56;99307.59;;;32.59;26.33
6506;BME280;3286;49.858;8.768;2022-07-22T12:49:27;99315.72;;;32.84;26.09
6506;BME280;3286;49.858;8.768;2022-07-22T12:52:08;99310.94;;;32.75;28.39
6506;BME280;3286;49.858;8.768;2022-07-22T12:54:39;99314.31;;;31.99;26.22
6506;BME280;3286;49.858;8.768;2022-07-22T12:57:09;99308.34;;;32.46;26.19
6506;BME280;3286;49.858;8.768;2022-07-22T12:59:37;99300.41;;;33.21;26.28
6506;BME280;3286;49.858;8.768;2022-07-22T13:02:08;99297.63;;;33.40;25.38
6506;BME280;3286;49.858;8.768;2022-07-22T13:04:38;99294.53;;;32.94;26.19
6506;BME280;3286;49.858;8.768;2022-07-22T13:07:04;99290.88;;;32.99;26.18
6506;BME280;3286;49.858;8.768;2022-07-22T13:09:34;99276.78;;;33.25;26.08
6506;BME280;3286;49.858;8.768;2022-07-22T13:12:02;99277.72;;;33.34;24.95
6506;BME280;3286;49.858;8.768;2022-07-22T13:14:28;99272.63;;;33.75;25.09
6506;BME280;3286;49.858;8.768;2022-07-22T13:17:04;99268.81;;;34.04;25.07
6506;BME280;3286;49.858;8.768;2022-07-22T13:19:34;99263.38;;;34.27;24.98
6506;BME280;3286;49.858;8.768;2022-07-22T13:22:08;99261.97;;;34.29;24.12
6506;BME280;3286;49.858;8.768;2022-07-22T13:24:36;99254.38;;;33.70;24.59
6506;BME280;3286;49.858;8.768;2022-07-22T13:27:04;99265.94;;;33.53;24.87
6506;BME280;3286;49.858;8.768;2022-07-22T13:29:31;99250.22;;;33.87;24.89
6506;BME280;3286;49.858;8.768;2022-07-22T13:32:02;99251.31;;;34.28;25.03
6506;BME280;3286;49.858;8.768;2022-07-22T13:34:32;99243.41;;;34.63;24.95